createdAt,value
2023-04-12T00:02:43.572Z,101040.00
2023-04-12T00:05:30.718Z,101037.41
2023-04-12T00:08:16.846Z,101026.16
2023-04-12T00:11:03.426Z,101017.19
2023-04-12T00:13:49.284Z,101018.69
2023-04-12T00:16:38.109Z,101008.19
2023-04-12T00:19:25.884Z,101010.72
2023-04-12T00:22:12.209Z,101014.94
2023-04-12T00:24:58.631Z,101001.75
2023-04-12T00:27:44.300Z,101004.97
2023-04-12T00:30:29.982Z,100988.38
2023-04-12T00:33:17.022Z,100994.28
2023-04-12T00:36:02.839Z,100994.94
2023-04-12T00:38:48.529Z,100989.69
2023-04-12T00:41:34.343Z,100988.56
2023-04-12T00:44:20.442Z,100988.13
2023-04-12T00:47:06.898Z,100993.19
2023-04-12T00:49:54.934Z,100983.25
2023-04-12T00:52:41.885Z,100985.03
2023-04-12T00:55:27.727Z,100982.97
2023-04-12T00:58:14.079Z,100982.97
2023-04-12T01:01:00.344Z,100988.91
2023-04-12T01:03:46.606Z,100985.03
2023-04-12T01:06:38.026Z,100985.69
2023-04-12T01:09:24.665Z,100982.03
2023-04-12T01:12:13.669Z,100970.25
2023-04-12T01:15:03.786Z,100967.78
2023-04-12T01:17:58.756Z,100964.91
2023-04-12T01:20:48.292Z,100952.44
2023-04-12T01:23:44.741Z,100941.75
2023-04-12T01:26:35.955Z,100931.78
2023-04-12T01:29:23.290Z,100927.22
2023-04-12T01:32:08.988Z,100923.53
2023-04-12T01:34:54.862Z,100911.06
2023-04-12T01:37:40.638Z,100902.16
2023-04-12T01:40:28.193Z,100895.00
2023-04-12T01:43:14.720Z,100891.34
2023-04-12T01:46:02.009Z,100886.94
2023-04-12T01:48:49.812Z,100885.06
2023-04-12T01:51:36.382Z,100871.81
2023-04-12T01:54:23.176Z,100862.94
2023-04-12T01:57:08.970Z,100856.75
2023-04-12T01:59:56.003Z,100852.03
2023-04-12T02:02:44.935Z,100841.41
2023-04-12T02:05:31.257Z,100829.03
2023-04-12T02:08:17.213Z,100831.56
2023-04-12T02:11:08.684Z,100807.91
2023-04-12T02:13:55.216Z,100797.22
2023-04-12T02:16:42.217Z,100782.97
2023-04-12T02:19:29.478Z,100778.22
2023-04-12T02:22:17.169Z,100762.03
2023-04-12T02:25:04.853Z,100752.41
2023-04-12T02:27:50.739Z,100729.16
2023-04-12T02:30:38.261Z,100712.16
2023-04-12T02:33:28.003Z,100692.25
2023-04-12T02:36:18.326Z,100670.59
2023-04-12T02:39:05.191Z,100650.69
2023-04-12T02:41:53.446Z,100626.59
2023-04-12T02:44:41.915Z,100599.75
2023-04-12T02:47:32.617Z,100577.41
2023-04-12T02:50:20.560Z,100548.72
2023-04-12T02:53:14.254Z,100535.59
2023-04-12T02:56:02.941Z,100523.38
2023-04-12T02:58:50.262Z,100513.81
2023-04-12T03:01:50.705Z,100498.88
2023-04-12T03:04:46.785Z,100488.03
2023-04-12T03:07:36.846Z,100481.13
2023-04-12T03:10:25.004Z,100463.19
2023-04-12T03:13:19.748Z,100451.84
2023-04-12T03:16:21.479Z,100431.28
2023-04-12T03:19:09.952Z,100422.94
2023-04-12T03:21:55.772Z,100404.16
2023-04-12T03:24:44.700Z,100386.22
2023-04-12T03:27:33.972Z,100361.81
2023-04-12T03:30:20.389Z,100325.31
2023-04-12T03:33:07.033Z,100321.81
2023-04-12T03:35:53.809Z,100301.09
2023-04-12T03:38:39.538Z,100280.63
2023-04-12T03:41:29.215Z,100266.50
2023-04-12T03:44:16.978Z,100249.03
2023-04-12T03:47:03.261Z,100252.63
2023-04-12T03:50:10.301Z,100236.97
2023-04-12T03:52:58.573Z,100231.56
2023-04-12T03:55:49.924Z,100227.28
2023-04-12T03:58:36.780Z,100213.59
2023-04-12T04:01:25.904Z,100206.66
2023-04-12T04:04:13.436Z,100197.94
2023-04-12T04:06:59.927Z,100189.06
2023-04-12T04:09:47.911Z,100178.41
2023-04-12T04:12:34.228Z,100175.63
2023-04-12T04:15:20.983Z,100178.97
2023-04-12T04:18:08.755Z,100170.72
2023-04-12T04:20:55.632Z,100149.38
2023-04-12T04:23:44.864Z,100150.47
2023-04-12T04:26:33.378Z,100146.88
2023-04-12T04:29:31.671Z,100143.53
2023-04-12T04:32:19.950Z,100146.03
2023-04-12T04:35:08.382Z,100133.84
2023-04-12T04:38:07.207Z,100134.41
2023-04-12T04:40:54.139Z,100126.25
2023-04-12T04:43:46.748Z,100117.25
2023-04-12T04:46:32.807Z,100115.31
2023-04-12T04:49:19.217Z,100118.06
2023-04-12T04:52:08.514Z,100110.88
2023-04-12T04:54:57.511Z,100098.53
2023-04-12T04:57:45.314Z,100102.47
2023-04-12T05:00:35.639Z,100085.69
2023-04-12T05:03:21.902Z,100087.38
2023-04-12T05:06:08.935Z,100085.28
2023-04-12T05:09:00.559Z,100079.34
2023-04-12T05:11:48.154Z,100071.91
2023-04-12T05:14:44.414Z,100071.75
2023-04-12T05:17:34.322Z,100058.19
2023-04-12T05:20:20.346Z,100051.53
2023-04-12T05:23:06.591Z,100045.28
2023-04-12T05:25:54.581Z,100045.88
2023-04-12T05:28:42.267Z,100036.44
2023-04-12T05:31:29.964Z,100046.00
2023-04-12T05:34:18.873Z,100028.13
2023-04-12T05:37:11.581Z,100028.44
2023-04-12T05:39:58.403Z,100032.31
2023-04-12T05:42:45.564Z,100021.91
2023-04-12T05:45:31.746Z,100020.13
2023-04-12T05:48:19.818Z,100013.59
2023-04-12T05:51:06.650Z,100010.41
2023-04-12T05:53:52.975Z,99992.09
2023-04-12T05:56:39.655Z,99999.13
2023-04-12T05:59:27.129Z,99994.25
2023-04-12T06:02:13.501Z,99993.38
2023-04-12T06:05:00.684Z,99992.63
2023-04-12T06:07:48.097Z,99986.19
2023-04-12T06:10:34.448Z,99993.94
2023-04-12T06:13:21.347Z,99981.22
2023-04-12T06:16:09.332Z,99981.03
2023-04-12T06:18:56.590Z,99977.47
2023-04-12T06:21:42.635Z,99975.91
2023-04-12T06:24:28.885Z,99970.72
2023-04-12T06:27:15.555Z,99957.19
2023-04-12T06:30:01.748Z,99955.63
2023-04-12T06:32:51.161Z,99951.69
2023-04-12T06:35:37.249Z,99953.81
2023-04-12T06:38:23.671Z,99946.00
2023-04-12T06:41:09.740Z,99940.47
2023-04-12T06:43:55.619Z,99932.59
2023-04-12T06:46:41.430Z,99929.69
2023-04-12T06:49:28.523Z,99919.47
2023-04-12T06:52:14.255Z,99910.63
2023-04-12T06:54:59.939Z,99907.28
2023-04-12T06:57:46.115Z,99898.97
2023-04-12T07:00:32.189Z,99902.94
2023-04-12T07:03:18.313Z,99897.31
2023-04-12T07:06:17.748Z,99899.97
2023-04-12T07:09:11.147Z,99884.25
2023-04-12T07:11:56.949Z,99890.44
2023-04-12T07:14:44.651Z,99884.97
2023-04-12T07:17:31.143Z,99882.50
2023-04-12T07:20:17.450Z,99869.31
2023-04-12T07:23:04.933Z,99861.06
2023-04-12T07:25:50.710Z,99864.91
2023-04-12T07:28:37.989Z,99861.13
2023-04-12T07:31:24.227Z,99848.19
2023-04-12T07:34:10.396Z,99852.69
2023-04-12T07:36:56.719Z,99839.59
2023-04-12T07:39:44.144Z,99820.13
2023-04-12T07:42:30.193Z,99814.66
2023-04-12T07:45:16.472Z,99806.06
2023-04-12T07:48:03.509Z,99798.94
2023-04-12T07:50:49.419Z,99799.63
2023-04-12T07:53:35.120Z,99796.94
2023-04-12T07:56:22.357Z,99778.94
2023-04-12T07:59:07.947Z,99773.63
2023-04-12T08:01:53.920Z,99777.75
2023-04-12T08:04:41.775Z,99762.84
2023-04-12T08:07:27.884Z,99758.22
2023-04-12T08:10:13.600Z,99756.22
2023-04-12T08:13:00.806Z,99765.00
2023-04-12T08:15:47.891Z,99768.81
2023-04-12T08:18:34.084Z,99767.66
2023-04-12T08:21:19.806Z,99760.53
2023-04-12T08:24:05.939Z,99777.41
2023-04-12T08:26:52.007Z,99779.25
2023-04-12T08:29:39.176Z,99770.28
2023-04-12T08:32:24.973Z,99769.47
2023-04-12T08:35:11.082Z,99772.94
2023-04-12T08:37:57.384Z,99770.47
2023-04-12T08:40:43.278Z,99779.41
2023-04-12T08:43:29.242Z,99772.97
2023-04-12T08:46:17.275Z,99776.78
2023-04-12T08:49:03.299Z,99772.47
2023-04-12T08:51:49.002Z,99785.06
2023-04-12T08:54:34.988Z,99793.00
2023-04-12T08:57:20.872Z,99786.03
2023-04-12T09:00:08.160Z,99790.50
2023-04-12T09:02:55.820Z,99797.97
2023-04-12T09:05:42.193Z,99794.00
2023-04-12T09:08:27.946Z,99792.31
2023-04-12T09:11:22.123Z,99784.19
2023-04-12T09:14:21.188Z,99786.69
2023-04-12T09:17:07.223Z,99784.34
2023-04-12T09:19:57.330Z,99796.78
2023-04-12T09:22:45.032Z,99801.09
2023-04-12T09:25:37.079Z,99800.56
2023-04-12T09:28:24.506Z,99800.72
2023-04-12T09:31:11.406Z,99812.78
2023-04-12T09:34:02.065Z,99819.75
2023-04-12T09:36:49.185Z,99830.28
2023-04-12T09:39:35.477Z,99834.25
2023-04-12T09:42:32.974Z,99837.41
2023-04-12T09:45:20.878Z,99837.53
2023-04-12T09:48:07.720Z,99838.69
2023-04-12T09:50:59.389Z,99849.72
2023-04-12T09:53:46.537Z,99842.63
2023-04-12T09:56:32.668Z,99849.22
2023-04-12T09:59:18.631Z,99845.09
2023-04-12T10:02:05.897Z,99846.47
2023-04-12T10:04:52.111Z,99853.22
2023-04-12T10:07:38.440Z,99852.75
2023-04-12T10:10:25.898Z,99851.59
2023-04-12T10:13:12.400Z,99850.47
2023-04-12T10:15:59.490Z,99856.75
2023-04-12T10:18:46.408Z,99856.97
2023-04-12T10:21:32.442Z,99846.72
2023-04-12T10:24:18.345Z,99845.56
2023-04-12T10:27:05.922Z,99848.44
2023-04-12T10:29:51.972Z,99833.03
2023-04-12T10:32:38.180Z,99832.25
2023-04-12T10:35:24.430Z,99838.38
2023-04-12T10:38:10.089Z,99840.88
2023-04-12T10:41:09.271Z,99840.31
2023-04-12T10:44:06.897Z,99837.19
2023-04-12T10:46:53.126Z,99835.69
2023-04-12T10:49:39.306Z,99837.66
2023-04-12T10:52:25.505Z,99843.31
2023-04-12T10:55:26.435Z,99848.22
2023-04-12T10:58:12.554Z,99841.28
2023-04-12T11:01:12.083Z,99854.22
2023-04-12T11:04:12.395Z,99854.72
2023-04-12T11:07:02.884Z,99866.16
2023-04-12T11:10:21.485Z,99870.44
2023-04-12T11:13:08.808Z,99876.91
2023-04-12T11:15:56.383Z,99873.78
2023-04-12T11:18:43.714Z,99858.69
2023-04-12T11:21:29.893Z,99855.22
2023-04-12T11:24:16.349Z,99856.59
2023-04-12T11:27:02.515Z,99852.47
2023-04-12T11:29:52.576Z,99847.97
2023-04-12T11:32:41.405Z,99851.00
2023-04-12T11:35:30.419Z,99844.03
2023-04-12T11:38:16.410Z,99843.03
2023-04-12T11:41:02.193Z,99821.84
2023-04-12T11:43:47.930Z,99819.22
2023-04-12T11:46:35.323Z,99807.41
2023-04-12T11:49:22.037Z,99801.78
2023-04-12T11:52:09.087Z,99796.16
2023-04-12T11:54:58.598Z,99794.50
2023-04-12T11:57:44.743Z,99791.03
2023-04-12T12:00:31.270Z,99798.16
2023-04-12T12:03:18.804Z,99800.97
2023-04-12T12:06:05.537Z,99812.25
2023-04-12T12:08:53.249Z,99816.72
2023-04-12T12:11:39.513Z,99832.28
2023-04-12T12:14:26.031Z,99832.75
2023-04-12T12:17:12.638Z,99848.53
2023-04-12T12:19:59.085Z,99851.03
2023-04-12T12:22:46.641Z,99856.97
2023-04-12T12:25:33.918Z,99856.84
2023-04-12T12:28:19.798Z,99857.78
2023-04-12T12:31:07.051Z,99860.72
2023-04-12T12:33:55.111Z,99860.94
2023-04-12T12:36:40.793Z,99857.75
2023-04-12T12:39:26.693Z,99863.56
2023-04-12T12:42:13.988Z,99856.09
2023-04-12T12:44:59.955Z,99830.91
2023-04-12T12:47:46.849Z,99817.31
2023-04-12T12:50:33.445Z,99811.50
2023-04-12T12:53:19.419Z,99804.84
2023-04-12T12:56:05.455Z,99803.06
2023-04-12T12:58:52.528Z,99798.09
2023-04-12T13:01:38.378Z,99790.78
2023-04-12T13:04:24.309Z,99774.00
2023-04-12T13:07:10.172Z,99774.34
2023-04-12T13:09:55.985Z,99775.66
2023-04-12T13:12:42.491Z,99774.34
2023-04-12T13:15:29.830Z,99761.38
2023-04-12T13:18:16.663Z,99762.19
2023-04-12T13:21:02.557Z,99769.91
2023-04-12T13:23:48.666Z,99757.34
2023-04-12T13:26:34.893Z,99755.16
2023-04-12T13:29:20.674Z,99734.50
2023-04-12T13:32:08.099Z,99735.31
2023-04-12T13:34:54.221Z,99725.13
2023-04-12T13:37:40.237Z,99720.94
2023-04-12T13:40:26.385Z,99710.66
2023-04-12T13:43:12.187Z,99692.53
2023-04-12T13:45:57.940Z,99673.94
2023-04-12T13:48:45.781Z,99666.66
2023-04-12T13:51:32.830Z,99647.00
2023-04-12T13:54:18.630Z,99639.94
2023-04-12T13:57:05.870Z,99626.56
2023-04-12T13:59:51.751Z,99623.63
2023-04-12T14:02:37.558Z,99622.19
2023-04-12T14:05:24.992Z,99612.28
2023-04-12T14:08:10.751Z,99595.03
2023-04-12T14:10:56.418Z,99585.59
2023-04-12T14:13:42.353Z,99570.56
2023-04-12T14:16:28.089Z,99559.28
2023-04-12T14:19:14.101Z,99544.06
2023-04-12T14:22:02.283Z,99545.47
2023-04-12T14:24:47.996Z,99529.50
2023-04-12T14:27:35.307Z,99525.00
2023-04-12T14:30:21.140Z,99514.75
2023-04-12T14:33:07.245Z,99516.28
2023-04-12T14:35:53.663Z,99514.44
2023-04-12T14:38:41.780Z,99514.00
2023-04-12T14:41:27.444Z,99528.75
2023-04-12T14:44:13.053Z,99520.97
2023-04-12T14:46:59.010Z,99535.84
2023-04-12T14:49:45.115Z,99535.66
2023-04-12T14:52:31.306Z,99545.09
2023-04-12T14:55:18.278Z,99540.41
2023-04-12T14:58:04.456Z,99556.47
2023-04-12T15:00:50.399Z,99571.84
2023-04-12T15:03:36.314Z,99577.72
2023-04-12T15:06:23.102Z,99593.09
2023-04-12T15:09:09.498Z,99600.16
2023-04-12T15:12:01.045Z,99607.97
2023-04-12T15:14:47.237Z,99622.81
2023-04-12T15:17:34.063Z,99622.72
2023-04-12T15:20:20.188Z,99641.81
2023-04-12T15:23:06.664Z,99640.06
2023-04-12T15:25:56.993Z,99644.72
2023-04-12T15:28:44.423Z,99647.38
2023-04-12T15:31:30.308Z,99654.69
2023-04-12T15:34:16.281Z,99663.66
2023-04-12T15:37:02.461Z,99676.94
2023-04-12T15:39:48.668Z,99677.94
2023-04-12T15:42:34.368Z,99696.84
2023-04-12T15:45:21.493Z,99709.66
2023-04-12T15:48:07.243Z,99713.81
2023-04-12T15:50:53.560Z,99724.09
2023-04-12T15:53:40.568Z,99730.34
2023-04-12T15:56:26.801Z,99734.97
2023-04-12T15:59:12.803Z,99749.25
2023-04-12T16:02:00.139Z,99751.72
2023-04-12T16:04:46.422Z,99756.88
2023-04-12T16:07:33.726Z,99757.38
2023-04-12T16:10:20.916Z,99757.66
2023-04-12T16:13:09.121Z,99767.09
2023-04-12T16:15:54.892Z,99766.28
2023-04-12T16:18:42.236Z,99774.72
2023-04-12T16:21:30.164Z,99775.38
2023-04-12T16:24:15.821Z,99777.03
2023-04-12T16:27:02.258Z,99772.72
2023-04-12T16:29:48.606Z,99770.41
2023-04-12T16:32:35.973Z,99772.72
2023-04-12T16:35:24.356Z,99778.09
2023-04-12T16:38:11.272Z,99785.34
2023-04-12T16:40:57.213Z,99793.97
2023-04-12T16:43:45.405Z,99788.34
2023-04-12T16:46:31.891Z,99804.31
2023-04-12T16:49:19.749Z,99816.22
2023-04-12T16:52:07.482Z,99819.28
2023-04-12T16:54:53.525Z,99822.25
2023-04-12T16:57:40.296Z,99822.25
2023-04-12T17:00:29.002Z,99832.88
2023-04-12T17:03:15.751Z,99828.75
2023-04-12T17:06:04.114Z,99837.72
2023-04-12T17:08:51.249Z,99834.88
2023-04-12T17:11:37.254Z,99837.06
2023-04-12T17:14:23.136Z,99848.69
2023-04-12T17:17:08.868Z,99860.31
2023-04-12T17:19:54.748Z,99861.78
2023-04-12T17:22:41.712Z,99862.97
2023-04-12T17:25:31.085Z,99865.47
2023-04-12T17:28:17.563Z,99863.81
2023-04-12T17:31:03.934Z,99868.28
2023-04-12T17:33:50.118Z,99882.06
2023-04-12T17:36:36.125Z,99906.63
2023-04-12T17:39:22.310Z,99907.97
2023-04-12T17:42:09.706Z,99904.84
2023-04-12T17:44:55.883Z,99913.63
2023-04-12T17:47:42.140Z,99914.16
2023-04-12T17:50:28.466Z,99924.28
2023-04-12T17:53:14.830Z,99936.88
2023-04-12T17:56:00.839Z,99937.22
2023-04-12T17:58:48.208Z,99987.03
2023-04-12T18:01:36.645Z,99998.63
2023-04-12T18:04:23.248Z,99985.63
2023-04-12T18:07:09.679Z,99968.69
2023-04-12T18:09:56.053Z,99915.16
2023-04-12T18:12:43.684Z,99901.34
2023-04-12T18:15:30.828Z,99875.13
2023-04-12T18:18:16.656Z,99850.94
2023-04-12T18:21:03.674Z,99846.78
2023-04-12T18:23:49.424Z,99839.16
2023-04-12T18:26:35.372Z,99830.50
2023-04-12T18:29:21.811Z,99825.53
2023-04-12T18:32:08.904Z,99817.19
2023-04-12T18:34:54.700Z,99820.81
2023-04-12T18:37:40.914Z,99822.59
2023-04-12T18:40:27.304Z,99829.50
2023-04-12T18:43:13.390Z,99824.97
2023-04-12T18:45:59.369Z,99830.94
2023-04-12T18:48:47.840Z,99822.28
2023-04-12T18:51:33.921Z,99827.91
2023-04-12T18:54:20.225Z,99830.72
2023-04-12T18:57:06.881Z,99836.09
2023-04-12T18:59:53.020Z,99832.44
2023-04-12T19:02:39.186Z,99833.94
2023-04-12T19:05:27.547Z,99835.91
2023-04-12T19:08:13.824Z,99843.84
2023-04-12T19:10:59.606Z,99835.31
2023-04-12T19:13:46.079Z,99838.78
2023-04-12T19:16:32.060Z,99837.22
2023-04-12T19:19:18.298Z,99824.97
2023-04-12T19:22:05.485Z,99826.13
2023-04-12T19:24:51.645Z,99820.84
2023-04-12T19:27:39.753Z,99826.38
2023-04-12T19:30:26.044Z,99828.59
2023-04-12T19:33:12.947Z,99828.28
2023-04-12T19:35:58.966Z,99830.56
2023-04-12T19:38:47.818Z,99841.72
2023-04-12T19:41:33.870Z,99833.78
2023-04-12T19:44:19.917Z,99856.22
2023-04-12T19:47:05.898Z,99883.25
2023-04-12T19:49:51.664Z,99878.72
2023-04-12T19:52:37.410Z,99870.56
2023-04-12T19:55:25.888Z,99873.97
2023-04-12T19:58:13.433Z,99880.66
2023-04-12T20:01:02.022Z,99885.69
2023-04-12T20:03:48.029Z,99875.88
2023-04-12T20:06:33.907Z,99876.59
2023-04-12T20:09:27.603Z,99870.28
2023-04-12T20:12:16.529Z,99872.56
2023-04-12T20:15:05.654Z,99885.06
2023-04-12T20:17:59.243Z,99881.47
2023-04-12T20:20:47.059Z,99876.94
2023-04-12T20:23:36.869Z,99874.88
2023-04-12T20:26:27.417Z,99881.00
2023-04-12T20:29:14.982Z,99898.25
2023-04-12T20:32:05.302Z,99903.25
2023-04-12T20:34:58.261Z,99932.69
2023-04-12T20:37:50.192Z,99949.09
2023-04-12T20:40:40.984Z,99952.97
2023-04-12T20:43:27.346Z,99955.97
2023-04-12T20:46:17.069Z,99959.88
2023-04-12T20:49:07.505Z,99958.50
2023-04-12T20:52:01.619Z,99958.78
2023-04-12T20:54:54.773Z,99963.06
2023-04-12T20:57:47.856Z,99971.25
2023-04-12T21:00:41.312Z,99967.06
2023-04-12T21:03:34.649Z,99965.69
2023-04-12T21:06:20.893Z,99974.72
2023-04-12T21:09:10.167Z,99977.34
2023-04-12T21:11:57.790Z,99981.25
2023-04-12T21:14:46.932Z,99988.19
2023-04-12T21:17:33.380Z,99983.19
2023-04-12T21:20:21.694Z,99984.00
2023-04-12T21:23:13.604Z,99981.53
2023-04-12T21:26:00.218Z,99992.06
2023-04-12T21:28:48.595Z,100007.03
2023-04-12T21:31:36.957Z,100012.31
2023-04-12T21:34:25.316Z,100010.50
2023-04-12T21:37:12.736Z,100011.34
2023-04-12T21:39:58.860Z,100006.75
2023-04-12T21:42:45.202Z,100007.59
2023-04-12T21:45:31.280Z,100004.25
2023-04-12T21:48:17.225Z,100006.22
2023-04-12T21:51:03.651Z,100015.09
2023-04-12T21:53:51.026Z,100013.41
2023-04-12T21:56:36.785Z,100015.34
2023-04-12T21:59:22.608Z,100010.91
2023-04-12T22:02:08.601Z,100018.94
2023-04-12T22:04:55.087Z,100020.75
2023-04-12T22:07:41.718Z,100017.13
2023-04-12T22:10:29.219Z,100020.59
2023-04-12T22:13:15.199Z,100018.09
2023-04-12T22:16:02.396Z,100025.03
2023-04-12T22:18:49.606Z,100012.44
2023-04-12T22:21:35.388Z,100001.91
2023-04-12T22:24:21.313Z,99994.53
2023-04-12T22:27:09.146Z,99992.88
2023-04-12T22:29:54.982Z,99988.72
2023-04-12T22:32:40.913Z,99991.75
2023-04-12T22:35:27.054Z,99993.09
2023-04-12T22:38:14.654Z,99990.47
2023-04-12T22:41:02.117Z,99988.94
2023-04-12T22:43:49.881Z,99976.19
2023-04-12T22:46:38.701Z,99986.03
2023-04-12T22:49:27.886Z,99979.94
2023-04-12T22:52:13.712Z,99981.44
2023-04-12T22:55:00.005Z,99992.00
2023-04-12T22:57:47.002Z,99996.53
2023-04-12T23:00:35.018Z,99996.81
2023-04-12T23:03:21.475Z,100009.97
2023-04-12T23:06:07.519Z,100018.56
2023-04-12T23:08:53.907Z,100029.09
2023-04-12T23:11:40.584Z,100031.59
2023-04-12T23:14:26.569Z,100036.03
2023-04-12T23:17:13.699Z,100030.06
2023-04-12T23:20:01.580Z,100037.97
2023-04-12T23:22:57.924Z,100033.81
2023-04-12T23:25:45.249Z,100043.50
2023-04-12T23:28:30.890Z,100040.19
2023-04-12T23:31:16.799Z,100051.69
2023-04-12T23:34:05.789Z,100043.78
2023-04-12T23:36:51.897Z,100050.16
2023-04-12T23:39:37.705Z,100047.38
2023-04-12T23:42:23.528Z,100040.44
2023-04-12T23:45:10.556Z,100042.38
2023-04-12T23:47:56.885Z,100031.03
2023-04-12T23:50:45.533Z,100039.06
2023-04-12T23:53:31.408Z,100035.72
2023-04-12T23:56:17.388Z,100026.41
2023-04-12T23:59:03.248Z,100030.00
